Time;durP1;ratioP1;P1;durP2;ratioP2;P2;SDS_P1;SDS_P2;PMS_P1;PMS_P2;Temp;Humidity;BMP_temperature;BMP_pressure;BME280_temperature;BME280_humidity;BME280_pressure;Samples;Min_cycle;Max_cycle;Signal;HPM_P1;HPM_P2
2023/08/20 00:00:51;;;;;;;;;;;17.00;99.90;;;;;;4989210;28;20310;-71
2023/08/20 00:03:17;;;;;;;;;;;17.00;99.90;;;;;;5004915;28;19992;-71
2023/08/20 00:05:42;;;;;;;;;;;16.90;99.90;;;;;;5005827;28;20283;-71
2023/08/20 00:08:08;;;;;;;;;;;16.90;99.90;;;;;;5006604;28;20283;-71
2023/08/20 00:10:33;;;;;;;;;;;16.90;99.90;;;;;;5003859;28;20264;-71
2023/08/20 00:12:59;;;;;;;;;;;16.80;99.90;;;;;;5002712;28;19983;-81
2023/08/20 00:15:27;;;;;;;;;;;16.90;99.90;;;;;;4985285;28;19933;-72
2023/08/20 00:17:53;;;;;;;;;;;16.80;99.90;;;;;;5002800;28;19957;-71
2023/08/20 00:20:19;;;;;;;;;;;16.80;99.90;;;;;;5000468;28;19965;-72
2023/08/20 00:22:45;;;;;;;;;;;16.80;99.90;;;;;;5002937;28;19996;-72
2023/08/20 00:25:11;;;;;;;;;;;16.80;99.90;;;;;;5003743;28;21116;-72
2023/08/20 00:27:37;;;;;;;;;;;16.70;99.90;;;;;;5003737;28;19939;-71
2023/08/20 00:30:03;;;;;;;;;;;16.70;99.90;;;;;;5003438;28;20035;-71
2023/08/20 00:32:29;;;;;;;;;;;16.70;99.90;;;;;;5005748;28;19917;-71
2023/08/20 00:34:55;;;;;;;;;;;16.60;99.90;;;;;;5004454;28;19918;-71
2023/08/20 00:37:20;;;;;;;;;;;16.60;99.90;;;;;;5003746;28;20008;-71
2023/08/20 00:39:46;;;;;;;;;;;16.60;99.90;;;;;;5004700;28;20319;-71
2023/08/20 00:42:14;;;;;;;;;;;16.60;99.90;;;;;;5001561;28;20524;-71
2023/08/20 00:44:41;;;;;;;;;;;16.60;99.90;;;;;;5002785;28;19989;-71
2023/08/20 00:47:07;;;;;;;;;;;16.50;99.90;;;;;;5002121;28;20366;-71
2023/08/20 00:49:33;;;;;;;;;;;16.50;99.90;;;;;;5005311;28;19956;-72
2023/08/20 00:51:59;;;;;;;;;;;16.50;99.90;;;;;;5002955;28;20056;-72
2023/08/20 00:54:25;;;;;;;;;;;16.50;99.90;;;;;;4999123;28;20019;-72
2023/08/20 00:56:51;;;;;;;;;;;16.50;99.90;;;;;;5000735;28;20036;-71
2023/08/20 00:59:17;;;;;;;;;;;16.50;99.90;;;;;;5005415;28;20348;-71
2023/08/20 01:01:43;;;;;;;;;;;16.50;99.90;;;;;;5004539;28;19927;-71
2023/08/20 01:04:08;;;;;;;;;;;16.50;99.90;;;;;;5005183;28;19936;-72
2023/08/20 01:06:52;;;;;;;;;;;16.50;99.90;;;;;;5003578;28;20295;-72
2023/08/20 01:09:36;;;;;;;;;;;16.50;99.90;;;;;;5002269;28;19924;-72
2023/08/20 01:12:02;;;;;;;;;;;16.40;99.90;;;;;;4982618;28;19924;-72
2023/08/20 01:14:28;;;;;;;;;;;16.40;99.90;;;;;;5000943;28;19921;-72
2023/08/20 01:16:53;;;;;;;;;;;16.40;99.90;;;;;;5003888;28;19917;-71
2023/08/20 01:19:20;;;;;;;;;;;16.40;99.90;;;;;;5004393;28;19937;-72
2023/08/20 01:21:55;;;;;;;;;;;16.40;99.90;;;;;;4986315;28;19936;-72
2023/08/20 01:24:27;;;;;;;;;;;16.40;99.90;;;;;;5001582;28;19943;-72
2023/08/20 01:27:11;;;;;;;;;;;16.40;99.90;;;;;;4999008;28;19928;-73
2023/08/20 01:29:38;;;;;;;;;;;16.40;99.90;;;;;;5012823;22;20283;-69
2023/08/20 01:32:04;;;;;;;;;;;16.40;99.90;;;;;;5008395;28;19975;-69
2023/08/20 01:34:29;;;;;;;;;;;16.30;99.90;;;;;;5005427;28;19956;-68
2023/08/20 01:36:55;;;;;;;;;;;16.30;99.90;;;;;;4972886;28;20272;-69
2023/08/20 01:39:20;;;;;;;;;;;16.40;99.90;;;;;;4996249;28;20322;-69
2023/08/20 01:41:46;;;;;;;;;;;16.40;99.90;;;;;;4995637;28;19918;-68
2023/08/20 01:44:11;;;;;;;;;;;16.50;99.90;;;;;;4995698;28;20020;-68
2023/08/20 01:46:37;;;;;;;;;;;16.50;99.90;;;;;;4989056;28;19992;-68
2023/08/20 01:49:03;;;;;;;;;;;16.50;99.90;;;;;;4997026;28;19921;-68
2023/08/20 01:51:28;;;;;;;;;;;16.50;99.90;;;;;;4988601;28;20355;-69
2023/08/20 01:53:54;;;;;;;;;;;16.60;99.90;;;;;;4976644;28;19925;-68
2023/08/20 01:56:19;;;;;;;;;;;16.60;99.90;;;;;;4997370;28;20409;-69
2023/08/20 01:58:45;;;;;;;;;;;16.60;99.90;;;;;;4996710;28;19968;-68
2023/08/20 02:01:10;;;;;;;;;;;16.60;99.90;;;;;;4983482;28;19969;-68
2023/08/20 02:03:37;;;;;;;;;;;16.60;99.90;;;;;;4976649;28;19921;-69
2023/08/20 02:06:03;;;;;;;;;;;16.60;99.90;;;;;;4977635;28;19937;-68
2023/08/20 02:08:29;;;;;;;;;;;16.60;99.90;;;;;;4987928;28;20287;-69
2023/08/20 02:11:01;;;;;;;;;;;16.60;99.90;;;;;;4994347;28;19968;-68
2023/08/20 02:13:27;;;;;;;;;;;16.60;99.90;;;;;;4989750;28;20359;-68
2023/08/20 02:16:03;;;;;;;;;;;16.60;99.90;;;;;;4983101;28;19921;-68
2023/08/20 02:18:28;;;;;;;;;;;16.60;99.90;;;;;;4984093;28;20105;-68
2023/08/20 02:20:54;;;;;;;;;;;16.60;99.90;;;;;;4982014;28;19922;-69
2023/08/20 02:23:20;;;;;;;;;;;16.50;99.90;;;;;;4986151;28;19921;-68
2023/08/20 02:25:46;;;;;;;;;;;16.50;99.90;;;;;;4989335;28;19917;-69
2023/08/20 02:28:11;;;;;;;;;;;16.50;99.90;;;;;;4989227;28;19984;-68
2023/08/20 02:30:45;;;;;;;;;;;16.50;99.90;;;;;;4971905;28;20350;-68
2023/08/20 02:33:11;;;;;;;;;;;16.40;99.90;;;;;;4985689;28;20387;-68
2023/08/20 02:35:36;;;;;;;;;;;16.40;99.90;;;;;;4985978;28;20012;-68
2023/08/20 02:38:02;;;;;;;;;;;16.30;99.90;;;;;;4989288;28;20251;-69
2023/08/20 02:40:28;;;;;;;;;;;16.30;99.90;;;;;;4985207;28;19921;-68
2023/08/20 02:42:53;;;;;;;;;;;16.30;99.90;;;;;;4986124;28;19926;-68
2023/08/20 02:45:19;;;;;;;;;;;16.20;99.90;;;;;;4983973;28;19933;-69
2023/08/20 02:47:44;;;;;;;;;;;16.30;99.90;;;;;;4986742;28;20116;-69
2023/08/20 02:50:10;;;;;;;;;;;16.20;99.90;;;;;;4982706;28;20296;-69
2023/08/20 02:52:36;;;;;;;;;;;16.30;99.90;;;;;;4990017;28;20407;-69
2023/08/20 02:55:03;;;;;;;;;;;16.30;99.90;;;;;;4989826;28;19918;-69
2023/08/20 02:57:28;;;;;;;;;;;16.30;99.90;;;;;;4991931;28;20292;-69
2023/08/20 02:59:54;;;;;;;;;;;16.30;99.90;;;;;;4985947;28;19926;-69
2023/08/20 03:02:19;;;;;;;;;;;16.30;99.90;;;;;;4982305;28;19929;-69
2023/08/20 03:04:45;;;;;;;;;;;16.20;99.90;;;;;;4988455;28;20544;-69
2023/08/20 03:07:10;;;;;;;;;;;16.30;99.90;;;;;;4993672;28;20368;-69
2023/08/20 03:09:36;;;;;;;;;;;16.30;99.90;;;;;;4990981;28;19937;-69
2023/08/20 03:12:02;;;;;;;;;;;16.30;99.90;;;;;;4987323;28;19922;-69
2023/08/20 03:14:27;;;;;;;;;;;16.30;99.90;;;;;;4988994;28;20282;-69
2023/08/20 03:16:53;;;;;;;;;;;16.20;99.90;;;;;;4988207;28;19922;-69
2023/08/20 03:19:18;;;;;;;;;;;16.20;99.90;;;;;;5000158;28;20317;-69
2023/08/20 03:21:44;;;;;;;;;;;16.20;99.90;;;;;;4991433;28;19965;-69
2023/08/20 03:24:09;;;;;;;;;;;16.20;99.90;;;;;;4989872;28;19924;-69
2023/08/20 03:26:35;;;;;;;;;;;16.10;99.90;;;;;;4990262;28;19988;-69
2023/08/20 03:29:01;;;;;;;;;;;16.10;99.90;;;;;;4998477;28;19921;-69
2023/08/20 03:31:26;;;;;;;;;;;16.10;99.90;;;;;;4985389;28;19917;-69
2023/08/20 03:33:52;;;;;;;;;;;16.10;99.90;;;;;;4991892;28;19922;-69
2023/08/20 03:36:17;;;;;;;;;;;16.00;99.90;;;;;;4990776;28;19984;-69
2023/08/20 03:38:43;;;;;;;;;;;16.00;99.90;;;;;;4990676;28;19921;-69
2023/08/20 03:41:08;;;;;;;;;;;16.00;99.90;;;;;;4986420;28;20004;-70
2023/08/20 03:43:34;;;;;;;;;;;16.00;99.90;;;;;;4994794;28;19963;-69
2023/08/20 03:46:00;;;;;;;;;;;16.00;99.90;;;;;;4992192;28;19928;-69
2023/08/20 03:48:26;;;;;;;;;;;15.90;99.90;;;;;;4990564;28;19921;-69
2023/08/20 03:50:51;;;;;;;;;;;15.90;99.90;;;;;;4986633;28;19918;-68
2023/08/20 03:53:17;;;;;;;;;;;15.90;99.90;;;;;;4996268;28;19956;-69
2023/08/20 03:55:47;;;;;;;;;;;15.90;99.90;;;;;;4993940;28;19921;-69
2023/08/20 03:58:12;;;;;;;;;;;16.00;99.90;;;;;;4989583;28;19929;-69
2023/08/20 04:00:38;;;;;;;;;;;16.00;99.90;;;;;;4989101;28;19917;-68
2023/08/20 04:03:03;;;;;;;;;;;16.00;99.90;;;;;;4989079;28;19974;-69
2023/08/20 04:05:29;;;;;;;;;;;16.00;99.90;;;;;;4991110;28;20391;-69
2023/08/20 04:07:54;;;;;;;;;;;16.10;99.90;;;;;;4983590;28;19928;-69
2023/08/20 04:10:20;;;;;;;;;;;16.10;99.90;;;;;;4989329;28;19972;-69
2023/08/20 04:12:46;;;;;;;;;;;16.10;99.90;;;;;;4989680;28;19922;-69
2023/08/20 04:15:11;;;;;;;;;;;16.10;99.90;;;;;;4997474;28;20084;-69
2023/08/20 04:17:37;;;;;;;;;;;16.20;99.90;;;;;;5000280;28;19971;-69
2023/08/20 04:20:05;;;;;;;;;;;16.20;99.90;;;;;;4996820;28;20553;-69
2023/08/20 04:22:31;;;;;;;;;;;16.20;99.90;;;;;;4981704;28;19928;-69
2023/08/20 04:24:56;;;;;;;;;;;16.20;99.90;;;;;;4989009;28;19924;-69
2023/08/20 04:27:22;;;;;;;;;;;16.20;99.90;;;;;;5003368;28;19922;-69
2023/08/20 04:29:48;;;;;;;;;;;16.20;99.90;;;;;;4993675;28;19917;-69
2023/08/20 04:32:13;;;;;;;;;;;16.30;99.90;;;;;;4989086;28;19922;-69
2023/08/20 04:34:39;;;;;;;;;;;16.30;99.90;;;;;;4994428;28;19987;-69
2023/08/20 04:37:04;;;;;;;;;;;16.30;99.90;;;;;;4996600;28;19917;-69
2023/08/20 04:39:30;;;;;;;;;;;16.30;99.90;;;;;;4989677;28;20372;-69
2023/08/20 04:41:57;;;;;;;;;;;16.30;99.90;;;;;;4987821;28;19918;-68
2023/08/20 04:44:22;;;;;;;;;;;16.20;99.90;;;;;;4991345;28;19991;-69
2023/08/20 04:46:48;;;;;;;;;;;16.30;99.90;;;;;;4989088;28;20291;-69
2023/08/20 04:49:13;;;;;;;;;;;16.20;99.90;;;;;;4990589;28;20004;-69
2023/08/20 04:51:39;;;;;;;;;;;16.30;99.90;;;;;;4988092;28;19965;-69
2023/08/20 04:54:05;;;;;;;;;;;16.30;99.90;;;;;;4997678;28;19918;-69
2023/08/20 04:56:30;;;;;;;;;;;16.30;99.90;;;;;;4987855;28;19918;-69
2023/08/20 04:58:56;;;;;;;;;;;16.30;99.90;;;;;;4987906;28;19972;-69
2023/08/20 05:01:21;;;;;;;;;;;16.30;99.90;;;;;;4991448;28;20257;-69
2023/08/20 05:03:47;;;;;;;;;;;16.30;99.90;;;;;;4991055;28;19921;-68
2023/08/20 05:06:12;;;;;;;;;;;16.30;99.90;;;;;;4992075;28;20342;-69
2023/08/20 05:08:38;;;;;;;;;;;16.30;99.90;;;;;;4986665;28;19947;-69
2023/08/20 05:11:03;;;;;;;;;;;16.40;99.90;;;;;;4990567;28;19921;-69
2023/08/20 05:13:29;;;;;;;;;;;16.40;99.90;;;;;;4986906;28;19972;-69
2023/08/20 05:15:54;;;;;;;;;;;16.40;99.90;;;;;;4989613;28;19921;-69
2023/08/20 05:18:20;;;;;;;;;;;16.40;99.90;;;;;;4993199;28;20437;-69
2023/08/20 05:20:45;;;;;;;;;;;16.40;99.90;;;;;;4995746;28;19963;-69
2023/08/20 05:23:11;;;;;;;;;;;16.40;99.90;;;;;;4984743;28;20016;-69
2023/08/20 05:25:37;;;;;;;;;;;16.40;99.90;;;;;;4986511;28;19944;-69
2023/08/20 05:28:02;;;;;;;;;;;16.50;99.90;;;;;;4991491;28;19917;-69
2023/08/20 05:30:28;;;;;;;;;;;16.50;99.90;;;;;;4984490;28;19926;-69
2023/08/20 05:32:53;;;;;;;;;;;16.50;99.90;;;;;;4986619;28;19917;-69
2023/08/20 05:35:19;;;;;;;;;;;16.50;99.90;;;;;;4990217;28;20243;-70
2023/08/20 05:37:45;;;;;;;;;;;16.50;99.90;;;;;;4997685;28;19918;-69
2023/08/20 05:40:10;;;;;;;;;;;16.60;99.90;;;;;;4987909;28;20016;-70
2023/08/20 05:42:36;;;;;;;;;;;16.60;99.90;;;;;;4989042;28;20328;-69
2023/08/20 05:45:01;;;;;;;;;;;16.70;99.90;;;;;;4991827;28;19932;-69
2023/08/20 05:47:27;;;;;;;;;;;16.60;99.90;;;;;;4971601;28;19925;-69
2023/08/20 05:49:52;;;;;;;;;;;16.70;99.90;;;;;;4991861;28;19917;-69
2023/08/20 05:52:18;;;;;;;;;;;16.70;99.90;;;;;;4990193;28;20294;-69
2023/08/20 05:54:43;;;;;;;;;;;16.80;99.90;;;;;;4987060;28;19964;-69
2023/08/20 05:57:09;;;;;;;;;;;16.80;99.90;;;;;;4989345;28;19925;-69
2023/08/20 05:59:35;;;;;;;;;;;16.90;99.90;;;;;;4995200;28;19917;-69
2023/08/20 06:02:01;;;;;;;;;;;16.90;99.90;;;;;;4985877;28;19925;-69
2023/08/20 06:04:26;;;;;;;;;;;17.00;99.90;;;;;;4974246;28;19918;-69
2023/08/20 06:06:52;;;;;;;;;;;17.00;99.90;;;;;;4988855;28;20019;-69
2023/08/20 06:09:17;;;;;;;;;;;17.10;99.90;;;;;;4986583;28;19965;-69
2023/08/20 06:11:43;;;;;;;;;;;17.10;99.90;;;;;;4991443;28;20312;-69
2023/08/20 06:14:08;;;;;;;;;;;17.20;99.90;;;;;;4984007;28;19918;-69
2023/08/20 06:16:34;;;;;;;;;;;17.20;99.90;;;;;;4984271;28;19925;-69
2023/08/20 06:18:59;;;;;;;;;;;17.30;99.90;;;;;;4990202;28;19922;-69
2023/08/20 06:21:25;;;;;;;;;;;17.30;99.90;;;;;;4993178;28;19921;-69
2023/08/20 06:23:51;;;;;;;;;;;17.40;99.90;;;;;;4970433;28;20446;-69
2023/08/20 06:26:16;;;;;;;;;;;17.40;99.90;;;;;;4983689;28;19939;-69
2023/08/20 06:28:42;;;;;;;;;;;17.50;99.90;;;;;;4994532;28;19972;-69
2023/08/20 06:31:07;;;;;;;;;;;17.60;99.90;;;;;;4984914;28;20388;-68
2023/08/20 06:33:33;;;;;;;;;;;17.60;99.90;;;;;;4982093;28;19921;-68
2023/08/20 06:35:58;;;;;;;;;;;17.70;99.90;;;;;;4984820;28;19924;-69
2023/08/20 06:38:24;;;;;;;;;;;17.70;99.90;;;;;;4991351;28;19917;-68
2023/08/20 06:40:50;;;;;;;;;;;17.80;99.90;;;;;;4987124;28;19975;-69
2023/08/20 06:43:15;;;;;;;;;;;17.90;99.90;;;;;;4984482;28;19967;-69
2023/08/20 06:45:41;;;;;;;;;;;18.00;99.90;;;;;;4987733;28;20021;-69
2023/08/20 06:48:06;;;;;;;;;;;18.00;99.90;;;;;;4992550;28;19921;-69
2023/08/20 06:50:32;;;;;;;;;;;18.10;99.90;;;;;;4986289;28;19925;-69
2023/08/20 06:52:57;;;;;;;;;;;18.20;99.90;;;;;;4989384;28;19929;-69
2023/08/20 06:55:23;;;;;;;;;;;18.20;99.90;;;;;;4983346;28;19928;-69
2023/08/20 06:57:48;;;;;;;;;;;18.30;99.90;;;;;;4988480;28;20006;-69
2023/08/20 07:00:14;;;;;;;;;;;18.40;99.90;;;;;;4982006;28;20020;-69
2023/08/20 07:02:40;;;;;;;;;;;18.40;99.90;;;;;;4976712;28;19929;-69
2023/08/20 07:05:06;;;;;;;;;;;18.50;99.90;;;;;;4993917;28;20008;-69
2023/08/20 07:07:31;;;;;;;;;;;18.50;99.90;;;;;;4981881;28;20307;-68
2023/08/20 07:09:57;;;;;;;;;;;18.60;99.90;;;;;;4975447;28;20011;-69
2023/08/20 07:12:22;;;;;;;;;;;18.60;99.90;;;;;;4986815;28;19918;-68
2023/08/20 07:14:48;;;;;;;;;;;18.70;99.90;;;;;;4988134;28;20330;-69
2023/08/20 07:17:13;;;;;;;;;;;18.80;99.90;;;;;;4997495;28;19968;-69
2023/08/20 07:19:39;;;;;;;;;;;18.80;99.90;;;;;;4983674;28;20220;-69
2023/08/20 07:22:04;;;;;;;;;;;18.90;99.90;;;;;;4992290;28;19977;-69
2023/08/20 07:24:34;;;;;;;;;;;19.00;99.90;;;;;;4985346;28;19918;-69
2023/08/20 07:27:02;;;;;;;;;;;19.00;99.90;;;;;;4982179;28;20313;-69
2023/08/20 07:29:29;;;;;;;;;;;19.10;99.90;;;;;;4982994;28;20192;-69
2023/08/20 07:31:56;;;;;;;;;;;19.20;99.90;;;;;;4990878;28;19922;-68
2023/08/20 07:34:21;;;;;;;;;;;19.20;99.90;;;;;;4993059;28;19918;-69
2023/08/20 07:36:47;;;;;;;;;;;19.30;99.90;;;;;;4987645;28;19925;-69
2023/08/20 07:39:12;;;;;;;;;;;19.40;99.90;;;;;;4985601;28;20001;-69
2023/08/20 07:41:38;;;;;;;;;;;19.40;99.90;;;;;;4988014;28;20345;-69
2023/08/20 07:44:04;;;;;;;;;;;19.50;99.90;;;;;;4985490;28;20396;-68
2023/08/20 07:46:29;;;;;;;;;;;19.50;99.90;;;;;;4990538;28;19918;-68
2023/08/20 07:48:55;;;;;;;;;;;19.50;99.90;;;;;;4990722;28;19941;-69
2023/08/20 07:51:20;;;;;;;;;;;19.60;99.90;;;;;;4996562;28;19917;-68
2023/08/20 07:53:46;;;;;;;;;;;19.70;99.90;;;;;;4986198;28;19918;-69
2023/08/20 07:56:11;;;;;;;;;;;19.70;99.90;;;;;;4993466;28;19952;-69
2023/08/20 07:58:37;;;;;;;;;;;19.80;99.90;;;;;;4985661;28;20295;-69
2023/08/20 08:01:02;;;;;;;;;;;19.80;99.90;;;;;;4984374;28;20396;-69
2023/08/20 08:03:28;;;;;;;;;;;19.90;99.90;;;;;;4993529;28;19922;-69
2023/08/20 08:05:54;;;;;;;;;;;20.00;99.90;;;;;;4988742;28;20060;-69
2023/08/20 08:08:20;;;;;;;;;;;20.00;99.90;;;;;;4990532;28;19980;-69
2023/08/20 08:10:46;;;;;;;;;;;20.00;99.90;;;;;;4988828;28;19957;-69
2023/08/20 08:13:16;;;;;;;;;;;20.10;99.90;;;;;;4997293;28;19918;-69
2023/08/20 08:15:42;;;;;;;;;;;20.20;99.90;;;;;;4985649;28;19918;-69
2023/08/20 08:18:08;;;;;;;;;;;20.30;99.90;;;;;;4995009;28;19917;-69
2023/08/20 08:20:34;;;;;;;;;;;20.30;99.90;;;;;;4988098;28;19928;-69
2023/08/20 08:22:59;;;;;;;;;;;20.40;99.90;;;;;;4987929;28;20392;-69
2023/08/20 08:25:25;;;;;;;;;;;20.40;99.90;;;;;;4971456;28;20325;-69
2023/08/20 08:27:50;;;;;;;;;;;20.50;99.90;;;;;;4978281;28;20354;-69
2023/08/20 08:30:16;;;;;;;;;;;20.60;99.90;;;;;;4989597;28;19917;-69
2023/08/20 08:32:42;;;;;;;;;;;20.70;99.90;;;;;;4986601;28;20284;-69
2023/08/20 08:35:07;;;;;;;;;;;20.70;99.90;;;;;;4983848;28;19921;-69
2023/08/20 08:37:33;;;;;;;;;;;20.80;99.90;;;;;;4987783;28;20124;-69
2023/08/20 08:39:58;;;;;;;;;;;20.80;99.90;;;;;;4982617;28;20380;-69
2023/08/20 08:42:26;;;;;;;;;;;20.90;99.90;;;;;;4991745;28;20380;-69
2023/08/20 08:44:52;;;;;;;;;;;20.80;99.90;;;;;;4990521;28;19956;-69
2023/08/20 08:47:18;;;;;;;;;;;20.90;99.90;;;;;;4984812;28;19957;-69
2023/08/20 08:49:44;;;;;;;;;;;20.90;99.90;;;;;;4986054;28;19930;-69
2023/08/20 08:52:10;;;;;;;;;;;20.90;99.90;;;;;;4990256;28;20055;-69
2023/08/20 08:54:36;;;;;;;;;;;20.90;99.90;;;;;;4991990;28;19918;-69
2023/08/20 08:57:02;;;;;;;;;;;21.00;99.90;;;;;;4988814;28;19918;-69
2023/08/20 08:59:27;;;;;;;;;;;20.90;99.90;;;;;;4996849;28;20065;-69
2023/08/20 09:01:54;;;;;;;;;;;21.00;99.90;;;;;;4985565;28;19968;-69
2023/08/20 09:04:19;;;;;;;;;;;21.00;99.90;;;;;;4976784;28;19921;-69
2023/08/20 09:06:49;;;;;;;;;;;21.00;99.90;;;;;;4989676;28;19917;-69
2023/08/20 09:09:14;;;;;;;;;;;21.00;99.90;;;;;;4991613;28;20367;-68
2023/08/20 09:11:43;;;;;;;;;;;21.10;99.90;;;;;;4981183;28;19972;-69
2023/08/20 09:14:20;;;;;;;;;;;21.20;99.90;;;;;;4987287;28;20302;-69
2023/08/20 09:16:45;;;;;;;;;;;21.40;99.90;;;;;;4993090;28;20040;-69
2023/08/20 09:19:11;;;;;;;;;;;21.50;99.90;;;;;;4989288;28;20005;-69
2023/08/20 09:21:36;;;;;;;;;;;21.50;99.90;;;;;;4993158;28;20212;-69
2023/08/20 09:24:02;;;;;;;;;;;21.50;99.90;;;;;;4988639;28;19976;-69
2023/08/20 09:26:27;;;;;;;;;;;21.50;99.90;;;;;;4985913;28;19964;-69
2023/08/20 09:28:54;;;;;;;;;;;21.60;99.90;;;;;;4991955;28;19929;-70
2023/08/20 09:31:20;;;;;;;;;;;21.70;99.90;;;;;;4986887;28;20280;-70
2023/08/20 09:33:53;;;;;;;;;;;21.70;99.90;;;;;;4985198;28;19918;-69
2023/08/20 09:36:19;;;;;;;;;;;21.70;99.90;;;;;;4969759;28;20000;-70
2023/08/20 09:38:44;;;;;;;;;;;21.70;99.90;;;;;;4988646;28;20455;-69
2023/08/20 09:41:11;;;;;;;;;;;21.80;99.90;;;;;;4983154;28;19926;-69
2023/08/20 09:43:37;;;;;;;;;;;21.90;99.90;;;;;;4988868;28;19929;-69
2023/08/20 09:46:04;;;;;;;;;;;22.00;99.90;;;;;;4980990;28;19918;-69
2023/08/20 09:48:32;;;;;;;;;;;22.10;99.90;;;;;;4987734;28;19924;-69
2023/08/20 09:51:00;;;;;;;;;;;22.20;99.90;;;;;;4987682;28;20368;-69
2023/08/20 09:53:27;;;;;;;;;;;22.30;99.90;;;;;;4991347;28;20342;-70
2023/08/20 09:55:55;;;;;;;;;;;22.50;99.90;;;;;;4986327;28;19995;-69
2023/08/20 09:58:21;;;;;;;;;;;22.60;99.90;;;;;;4988660;28;20364;-69
2023/08/20 10:00:48;;;;;;;;;;;22.70;99.90;;;;;;4991689;28;19930;-69
2023/08/20 10:03:13;;;;;;;;;;;22.80;99.90;;;;;;4989806;28;19944;-69
2023/08/20 10:05:39;;;;;;;;;;;22.90;99.90;;;;;;4997388;28;20535;-70
2023/08/20 10:08:08;;;;;;;;;;;23.00;99.90;;;;;;4964300;28;19928;-70
2023/08/20 10:10:34;;;;;;;;;;;23.10;99.90;;;;;;4992416;28;20091;-72
2023/08/20 10:12:59;;;;;;;;;;;23.20;99.90;;;;;;4982317;28;20326;-70
2023/08/20 10:15:27;;;;;;;;;;;23.20;99.90;;;;;;4986108;28;19918;-69
2023/08/20 10:17:53;;;;;;;;;;;23.30;99.90;;;;;;4978862;28;20012;-69
2023/08/20 10:20:18;;;;;;;;;;;23.30;99.90;;;;;;4982125;28;20434;-72
2023/08/20 10:22:44;;;;;;;;;;;23.40;99.90;;;;;;4984775;28;19921;-73
2023/08/20 10:25:23;;;;;;;;;;;23.50;99.90;;;;;;4977713;28;19921;-72
2023/08/20 10:27:49;;;;;;;;;;;23.60;99.90;;;;;;4985258;28;19964;-70
2023/08/20 10:30:20;;;;;;;;;;;23.80;99.90;;;;;;4992503;28;19968;-71
2023/08/20 10:32:48;;;;;;;;;;;23.80;99.90;;;;;;4984603;28;19924;-70
2023/08/20 10:35:25;;;;;;;;;;;23.90;99.90;;;;;;4979111;28;19922;-70
2023/08/20 10:38:00;;;;;;;;;;;24.00;99.90;;;;;;4985275;28;19929;-72
2023/08/20 10:40:45;;;;;;;;;;;24.10;99.90;;;;;;4996299;28;20017;-69
2023/08/20 10:43:10;;;;;;;;;;;24.10;99.90;;;;;;4987886;28;19965;-74
2023/08/20 10:45:43;;;;;;;;;;;24.20;99.90;;;;;;4989733;28;19957;-71
2023/08/20 10:48:08;;;;;;;;;;;24.10;99.90;;;;;;4982029;28;19918;-69
2023/08/20 10:50:36;;;;;;;;;;;24.00;99.90;;;;;;4987773;28;19992;-69
2023/08/20 10:53:03;;;;;;;;;;;24.00;99.90;;;;;;4968817;28;19971;-69
2023/08/20 10:55:30;;;;;;;;;;;24.00;99.90;;;;;;4983770;28;19961;-69
2023/08/20 10:57:56;;;;;;;;;;;24.00;99.90;;;;;;4982364;28;19964;-69
2023/08/20 11:00:22;;;;;;;;;;;24.00;99.90;;;;;;4985013;28;19964;-69
2023/08/20 11:02:49;;;;;;;;;;;24.10;99.90;;;;;;4987439;28;20793;-69
2023/08/20 11:05:18;;;;;;;;;;;24.20;99.90;;;;;;4986636;28;20431;-70
2023/08/20 11:07:47;;;;;;;;;;;24.30;99.90;;;;;;4987256;28;20450;-69
2023/08/20 11:10:14;;;;;;;;;;;24.20;99.90;;;;;;4986446;28;19949;-69
2023/08/20 11:12:40;;;;;;;;;;;24.10;99.90;;;;;;4980506;28;19921;-69
2023/08/20 11:15:06;;;;;;;;;;;24.20;99.90;;;;;;4968555;28;19973;-69
2023/08/20 11:17:31;;;;;;;;;;;24.20;99.90;;;;;;4984146;28;19926;-69
2023/08/20 11:19:57;;;;;;;;;;;24.30;99.90;;;;;;4987615;28;19926;-73
2023/08/20 11:22:22;;;;;;;;;;;24.30;99.90;;;;;;4977650;28;20000;-69
2023/08/20 11:24:48;;;;;;;;;;;24.40;99.90;;;;;;4985053;28;19925;-69
2023/08/20 11:27:13;;;;;;;;;;;24.50;99.90;;;;;;4979213;28;20475;-70
2023/08/20 11:29:42;;;;;;;;;;;24.60;99.90;;;;;;4991928;28;19921;-69
2023/08/20 11:32:09;;;;;;;;;;;24.70;99.90;;;;;;4985440;28;19922;-69
2023/08/20 11:34:34;;;;;;;;;;;24.80;99.90;;;;;;4981366;28;19921;-71
2023/08/20 11:37:00;;;;;;;;;;;24.70;99.90;;;;;;4986300;28;19924;-69
2023/08/20 11:39:28;;;;;;;;;;;24.60;99.90;;;;;;4994806;28;19921;-69
2023/08/20 11:41:54;;;;;;;;;;;24.50;99.90;;;;;;4985794;28;19926;-69
2023/08/20 11:44:21;;;;;;;;;;;24.50;99.90;;;;;;4988087;28;19929;-69
2023/08/20 11:46:46;;;;;;;;;;;24.40;99.90;;;;;;4984503;28;19972;-69
2023/08/20 11:49:12;;;;;;;;;;;24.20;99.90;;;;;;4992254;28;20013;-68
2023/08/20 11:51:39;;;;;;;;;;;24.00;99.90;;;;;;4990896;28;19921;-69
2023/08/20 11:54:05;;;;;;;;;;;24.10;99.90;;;;;;4994939;28;20065;-70
2023/08/20 11:56:32;;;;;;;;;;;24.30;99.90;;;;;;4988102;28;19968;-69
2023/08/20 11:59:02;;;;;;;;;;;24.50;99.90;;;;;;4981593;28;19983;-69
2023/08/20 12:01:33;;;;;;;;;;;24.60;99.90;;;;;;4985326;28;20435;-69
2023/08/20 12:04:00;;;;;;;;;;;24.80;99.90;;;;;;4979453;28;19967;-69
2023/08/20 12:06:30;;;;;;;;;;;24.90;99.90;;;;;;4973092;28;19921;-69
2023/08/20 12:08:55;;;;;;;;;;;25.00;99.90;;;;;;4990616;28;20056;-69
2023/08/20 12:11:30;;;;;;;;;;;25.20;99.90;;;;;;4988940;28;20020;-69
2023/08/20 12:16:25;;;;;;;;;;;25.40;99.90;;;;;;5028072;28;19921;-69
2023/08/20 12:18:51;;;;;;;;;;;25.50;99.90;;;;;;5007423;28;20408;-69
2023/08/20 12:21:16;;;;;;;;;;;25.50;99.90;;;;;;5021022;28;20271;-69
2023/08/20 12:23:42;;;;;;;;;;;25.50;99.90;;;;;;5004021;28;19924;-69
2023/08/20 12:26:07;;;;;;;;;;;25.60;99.90;;;;;;5028859;28;20035;-68
2023/08/20 12:28:33;;;;;;;;;;;25.70;99.90;;;;;;5030184;28;19924;-69
2023/08/20 12:30:59;;;;;;;;;;;25.80;99.90;;;;;;5016003;28;19921;-69
2023/08/20 12:33:24;;;;;;;;;;;25.90;99.90;;;;;;5029608;28;19995;-70
2023/08/20 12:35:53;;;;;;;;;;;26.00;99.90;;;;;;5021746;28;19932;-69
2023/08/20 12:38:19;;;;;;;;;;;26.00;99.90;;;;;;5029060;28;20035;-69
2023/08/20 12:40:44;;;;;;;;;;;26.00;99.90;;;;;;5016645;28;19961;-69
2023/08/20 12:43:10;;;;;;;;;;;26.00;99.90;;;;;;5020171;28;19917;-69
2023/08/20 12:45:36;;;;;;;;;;;25.90;99.90;;;;;;5027080;28;20332;-69
2023/08/20 12:48:03;;;;;;;;;;;25.90;99.90;;;;;;5028157;28;19962;-70
2023/08/20 12:50:29;;;;;;;;;;;25.90;99.90;;;;;;5028396;28;20335;-69
2023/08/20 12:52:54;;;;;;;;;;;25.90;99.90;;;;;;5017476;28;19952;-69
2023/08/20 12:55:20;;;;;;;;;;;25.80;99.90;;;;;;5017572;28;19921;-69
2023/08/20 12:57:58;;;;;;;;;;;25.70;99.90;;;;;;5020778;28;19917;-69
2023/08/20 13:00:27;;;;;;;;;;;25.80;99.90;;;;;;5007908;28;20015;-69
2023/08/20 13:02:54;;;;;;;;;;;25.90;99.90;;;;;;5023391;28;20267;-69
2023/08/20 13:05:20;;;;;;;;;;;26.00;99.90;;;;;;5020903;28;19988;-69
2023/08/20 13:07:46;;;;;;;;;;;26.10;99.90;;;;;;5025138;28;19917;-70
2023/08/20 13:10:12;;;;;;;;;;;25.90;99.90;;;;;;5028318;28;19929;-70
2023/08/20 13:12:40;;;;;;;;;;;26.00;99.90;;;;;;5029192;28;19924;-69
2023/08/20 13:15:06;;;;;;;;;;;26.00;99.90;;;;;;5025626;28;19946;-70
2023/08/20 13:17:32;;;;;;;;;;;26.10;99.90;;;;;;5025153;28;19916;-69
2023/08/20 13:19:57;;;;;;;;;;;26.20;99.90;;;;;;5022159;28;19921;-69
2023/08/20 13:22:23;;;;;;;;;;;26.30;99.90;;;;;;5027501;28;20381;-69
2023/08/20 13:24:49;;;;;;;;;;;26.40;99.90;;;;;;5027461;28;19920;-69
2023/08/20 13:27:14;;;;;;;;;;;26.30;99.90;;;;;;5022427;28;19917;-70
2023/08/20 13:29:40;;;;;;;;;;;26.20;99.90;;;;;;5018351;28;19921;-70
2023/08/20 13:32:08;;;;;;;;;;;26.30;99.90;;;;;;5023613;28;20004;-69
2023/08/20 13:34:34;;;;;;;;;;;26.30;99.90;;;;;;5015754;28;20004;-69
2023/08/20 13:36:59;;;;;;;;;;;26.40;99.50;;;;;;5022127;28;20071;-69
2023/08/20 13:39:25;;;;;;;;;;;26.40;99.40;;;;;;5024922;28;19923;-69
2023/08/20 13:41:51;;;;;;;;;;;26.40;98.80;;;;;;5018081;28;19927;-69
2023/08/20 13:44:17;;;;;;;;;;;26.50;99.80;;;;;;5017711;28;19972;-69
2023/08/20 13:46:43;;;;;;;;;;;26.50;99.20;;;;;;5021061;28;20024;-69
2023/08/20 13:49:08;;;;;;;;;;;26.60;99.90;;;;;;5026519;28;20000;-69
2023/08/20 13:51:34;;;;;;;;;;;26.50;98.40;;;;;;5025540;28;20333;-69
2023/08/20 13:53:59;;;;;;;;;;;26.40;99.90;;;;;;5026068;28;19929;-69
2023/08/20 13:56:25;;;;;;;;;;;26.30;99.00;;;;;;5025908;28;20012;-69
2023/08/20 13:58:52;;;;;;;;;;;26.40;99.20;;;;;;5017237;28;19982;-69
2023/08/20 14:01:17;;;;;;;;;;;26.40;98.90;;;;;;5018925;28;19928;-69
2023/08/20 14:03:43;;;;;;;;;;;26.30;99.70;;;;;;5026953;28;20358;-69
2023/08/20 14:06:08;;;;;;;;;;;26.10;99.60;;;;;;5028694;28;19936;-69
2023/08/20 14:08:34;;;;;;;;;;;26.10;99.90;;;;;;5019716;28;19916;-69
2023/08/20 14:10:59;;;;;;;;;;;26.20;99.90;;;;;;5006807;28;19925;-70
2023/08/20 14:13:25;;;;;;;;;;;26.30;99.90;;;;;;5015619;28;20374;-69